Torre De Belem — CSIO — position and weather

sailwx.info

Track history (hours):
 
Tides and Currents Weather Stations Pressure Air Temp Water Temp Dewpoint Dewpoint Depression Visibility Wind Speed Wind Dir Waves Ship Positions

Torre De Belem

Last reported at 2016-Jul-26 06:33 UTC. Time now 2016-Jul-26 08:26 UTC.
Position N 38°42' W 009°14'.

Length 14 m.

MMSI: 263671850.

Date/timePositionNaut miles runAvg speedWind from/ knotsBaromVisibWave heightAir tempDewpointWater temp
2016-Jul-26 06:33N 38°42' W 009°14'0 0.0
2016-Jul-26 05:32N 38°42' W 009°14'0 0.0
2016-Jul-26 04:33N 38°42' W 009°14'0 0.0
2016-Jul-26 03:33N 38°42' W 009°14'0 0.0
2016-Jul-26 02:33N 38°42' W 009°14'0 0.0
2016-Jul-26 01:33N 38°42' W 009°14'0 0.0
2016-Jul-26 00:33N 38°42' W 009°14'0 0.0
2016-Jul-25 23:33N 38°42' W 009°14'0 0.0
2016-Jul-25 22:34N 38°42' W 009°14'0 0.0
2016-Jul-25 21:33N 38°42' W 009°14'0 0.0
2016-Jul-25 20:33N 38°42' W 009°14'0 0.0
2016-Jul-25 19:33N 38°42' W 009°14'0 0.0
2016-Jul-25 18:33N 38°42' W 009°14'0 0.0
2016-Jul-25 17:33N 38°42' W 009°14'0 0.0
2016-Jul-25 16:33N 38°42' W 009°14'0 0.0
2016-Jul-25 15:33N 38°42' W 009°14'0 0.0
2016-Jul-25 14:33N 38°42' W 009°14'0 0.0
2016-Jul-25 13:32N 38°42' W 009°14'0 0.0
2016-Jul-25 12:32N 38°42' W 009°14'0 0.0
2016-Jul-25 11:32N 38°42' W 009°14'0 0.0
2016-Jul-25 10:33N 38°42' W 009°14'0 0.0
2016-Jul-25 09:33N 38°42' W 009°14'2 2.1
2016-Jul-25 08:33N 38°41' W 009°12'2 1.8
2016-Jul-25 07:33N 38°42' W 009°14'0 0.0
2016-Jul-24 17:25N 38°42' W 009°14'2 2.1
2016-Jul-24 16:34N 38°41' W 009°12'2 1.8
2016-Jul-24 15:33N 38°42' W 009°14'0 0.0
2016-Jul-24 14:33N 38°42' W 009°14'0 0.0
2016-Jul-24 13:34N 38°42' W 009°14'0 0.0
2016-Jul-24 12:33N 38°42' W 009°14'0 0.0
2016-Jul-24 11:33N 38°42' W 009°14'0 0.0
2016-Jul-24 10:33N 38°42' W 009°14'0 0.0
2016-Jul-24 09:33N 38°42' W 009°14'0 0.0
2016-Jul-24 08:33N 38°42' W 009°14'0 0.0
2016-Jul-24 07:33N 38°42' W 009°14'0 0.2
2016-Jul-24 06:34N 38°42' W 009°14'0 0.0
2016-Jul-23 18:15N 38°42' W 009°14'1 0.9
2016-Jul-23 17:33N 38°41' W 009°14'1 0.6
2016-Jul-23 16:33N 38°42' W 009°14'0 0.1
2016-Jul-23 15:33N 38°42' W 009°14'0 0.0
2016-Jul-23 14:33N 38°42' W 009°14'2 1.7
2016-Jul-23 13:33N 38°41' W 009°12'2 1.6
2016-Jul-23 12:33N 38°42' W 009°14'0 0.0
2016-Jul-23 11:33N 38°42' W 009°14'0 0.0
2016-Jul-23 10:31N 38°42' W 009°14'0 0.0
2016-Jul-23 09:33N 38°42' W 009°14'0 0.0
2016-Jul-23 01:26N 38°42' W 009°14'3 3.2
2016-Jul-23 00:34N 38°41' W 009°17'3 2.8
2016-Jul-22 23:32N 38°42' W 009°14'0 0.0
2016-Jul-22 22:29N 38°42' W 009°14'1 1.4
2016-Jul-22 21:32N 38°41' W 009°13'1 0.2
2016-Jul-22 15:27N 38°42' W 009°14'0 0.0
2016-Jul-22 14:33N 38°42' W 009°14'0 0.0
2016-Jul-21 15:12N 38°42' W 009°14'0 0.0
2016-Jul-21 14:34N 38°42' W 009°14'0 0.0
2016-Jul-21 13:33N 38°42' W 009°14'0 0.0
2016-Jul-21 12:31N 38°42' W 009°14'  
Track history (hours):
 
Tides and Currents Weather Stations Pressure Air Temp Water Temp Dewpoint Dewpoint Depression Visibility Wind Speed Wind Dir Waves Ship Positions

Torre De Belem

Last reported at 2016-Jul-26 06:33 UTC. Time now 2016-Jul-26 08:26 UTC.
Position N 38°42' W 009°14'.

Length 14 m.

MMSI: 263671850.

Date/timePositionNaut miles runAvg speedWind from/ knotsBaromVisibWave heightAir tempDewpointWater temp
2016-Jul-26 06:33N 38°42' W 009°14'0 0.0
2016-Jul-26 05:32N 38°42' W 009°14'0 0.0
2016-Jul-26 04:33N 38°42' W 009°14'0 0.0
2016-Jul-26 03:33N 38°42' W 009°14'0 0.0
2016-Jul-26 02:33N 38°42' W 009°14'0 0.0
2016-Jul-26 01:33N 38°42' W 009°14'0 0.0
2016-Jul-26 00:33N 38°42' W 009°14'0 0.0
2016-Jul-25 23:33N 38°42' W 009°14'0 0.0
2016-Jul-25 22:34N 38°42' W 009°14'0 0.0
2016-Jul-25 21:33N 38°42' W 009°14'0 0.0
2016-Jul-25 20:33N 38°42' W 009°14'0 0.0
2016-Jul-25 19:33N 38°42' W 009°14'0 0.0
2016-Jul-25 18:33N 38°42' W 009°14'0 0.0
2016-Jul-25 17:33N 38°42' W 009°14'0 0.0
2016-Jul-25 16:33N 38°42' W 009°14'0 0.0
2016-Jul-25 15:33N 38°42' W 009°14'0 0.0
2016-Jul-25 14:33N 38°42' W 009°14'0 0.0
2016-Jul-25 13:32N 38°42' W 009°14'0 0.0
2016-Jul-25 12:32N 38°42' W 009°14'0 0.0
2016-Jul-25 11:32N 38°42' W 009°14'0 0.0
2016-Jul-25 10:33N 38°42' W 009°14'0 0.0
2016-Jul-25 09:33N 38°42' W 009°14'2 2.1
2016-Jul-25 08:33N 38°41' W 009°12'2 1.8
2016-Jul-25 07:33N 38°42' W 009°14'0 0.0
2016-Jul-24 17:25N 38°42' W 009°14'2 2.1
2016-Jul-24 16:34N 38°41' W 009°12'2 1.8
2016-Jul-24 15:33N 38°42' W 009°14'0 0.0
2016-Jul-24 14:33N 38°42' W 009°14'0 0.0
2016-Jul-24 13:34N 38°42' W 009°14'0 0.0
2016-Jul-24 12:33N 38°42' W 009°14'0 0.0
2016-Jul-24 11:33N 38°42' W 009°14'0 0.0
2016-Jul-24 10:33N 38°42' W 009°14'0 0.0
2016-Jul-24 09:33N 38°42' W 009°14'0 0.0
2016-Jul-24 08:33N 38°42' W 009°14'0 0.0
2016-Jul-24 07:33N 38°42' W 009°14'0 0.2
2016-Jul-24 06:34N 38°42' W 009°14'0 0.0
2016-Jul-23 18:15N 38°42' W 009°14'1 0.9
2016-Jul-23 17:33N 38°41' W 009°14'1 0.6
2016-Jul-23 16:33N 38°42' W 009°14'0 0.1
2016-Jul-23 15:33N 38°42' W 009°14'0 0.0
2016-Jul-23 14:33N 38°42' W 009°14'2 1.7
2016-Jul-23 13:33N 38°41' W 009°12'2 1.6
2016-Jul-23 12:33N 38°42' W 009°14'0 0.0
2016-Jul-23 11:33N 38°42' W 009°14'0 0.0
2016-Jul-23 10:31N 38°42' W 009°14'0 0.0
2016-Jul-23 09:33N 38°42' W 009°14'0 0.0
2016-Jul-23 01:26N 38°42' W 009°14'3 3.2
2016-Jul-23 00:34N 38°41' W 009°17'3 2.8
2016-Jul-22 23:32N 38°42' W 009°14'0 0.0
2016-Jul-22 22:29N 38°42' W 009°14'1 1.4
2016-Jul-22 21:32N 38°41' W 009°13'1 0.2
2016-Jul-22 15:27N 38°42' W 009°14'0 0.0
2016-Jul-22 14:33N 38°42' W 009°14'0 0.0
2016-Jul-21 15:12N 38°42' W 009°14'0 0.0
2016-Jul-21 14:34N 38°42' W 009°14'0 0.0
2016-Jul-21 13:33N 38°42' W 009°14'0 0.0
2016-Jul-21 12:31N 38°42' W 009°14'  

Dump ship's entire track history